sensor_id;sensor_type;location;lat;lon;timestamp;P1;durP1;ratioP1;P2;durP2;ratioP2
64595;SDS011;51003;51.628;6.670;2023-05-07T00:00:19;15.73;;;11.00;;
64595;SDS011;51003;51.628;6.670;2023-05-07T00:02:45;15.10;;;10.40;;
64595;SDS011;51003;51.628;6.670;2023-05-07T00:05:11;12.47;;;10.70;;
64595;SDS011;51003;51.628;6.670;2023-05-07T00:07:36;11.83;;;9.87;;
64595;SDS011;51003;51.628;6.670;2023-05-07T00:10:02;12.27;;;10.03;;
64595;SDS011;51003;51.628;6.670;2023-05-07T00:12:31;12.40;;;10.17;;
64595;SDS011;51003;51.628;6.670;2023-05-07T00:14:58;15.80;;;10.33;;
64595;SDS011;51003;51.628;6.670;2023-05-07T00:17:24;17.07;;;10.13;;
64595;SDS011;51003;51.628;6.670;2023-05-07T00:19:50;12.90;;;10.90;;
64595;SDS011;51003;51.628;6.670;2023-05-07T00:22:16;12.70;;;10.20;;
64595;SDS011;51003;51.628;6.670;2023-05-07T00:24:42;12.27;;;9.80;;
64595;SDS011;51003;51.628;6.670;2023-05-07T00:27:08;13.23;;;10.20;;
64595;SDS011;51003;51.628;6.670;2023-05-07T00:29:33;10.80;;;9.50;;
64595;SDS011;51003;51.628;6.670;2023-05-07T00:31:58;12.00;;;9.67;;
64595;SDS011;51003;51.628;6.670;2023-05-07T00:34:24;11.70;;;10.10;;
64595;SDS011;51003;51.628;6.670;2023-05-07T00:36:50;13.23;;;9.77;;
64595;SDS011;51003;51.628;6.670;2023-05-07T00:39:16;12.03;;;9.73;;
64595;SDS011;51003;51.628;6.670;2023-05-07T00:41:41;13.37;;;10.50;;
64595;SDS011;51003;51.628;6.670;2023-05-07T00:44:06;12.80;;;9.93;;
64595;SDS011;51003;51.628;6.670;2023-05-07T00:46:32;12.97;;;10.90;;
64595;SDS011;51003;51.628;6.670;2023-05-07T00:48:57;15.10;;;10.77;;
64595;SDS011;51003;51.628;6.670;2023-05-07T00:51:23;11.60;;;9.83;;
64595;SDS011;51003;51.628;6.670;2023-05-07T00:53:51;12.07;;;10.20;;
64595;SDS011;51003;51.628;6.670;2023-05-07T00:56:17;12.30;;;9.87;;
64595;SDS011;51003;51.628;6.670;2023-05-07T00:58:42;14.37;;;9.80;;
64595;SDS011;51003;51.628;6.670;2023-05-07T01:01:08;13.00;;;10.57;;
64595;SDS011;51003;51.628;6.670;2023-05-07T01:03:33;14.07;;;10.13;;
64595;SDS011;51003;51.628;6.670;2023-05-07T01:05:58;12.30;;;9.97;;
64595;SDS011;51003;51.628;6.670;2023-05-07T01:08:24;11.30;;;9.80;;
64595;SDS011;51003;51.628;6.670;2023-05-07T01:10:51;12.30;;;9.53;;
64595;SDS011;51003;51.628;6.670;2023-05-07T01:13:17;10.77;;;9.30;;
64595;SDS011;51003;51.628;6.670;2023-05-07T01:15:44;13.53;;;10.80;;
64595;SDS011;51003;51.628;6.670;2023-05-07T01:18:09;14.00;;;10.40;;
64595;SDS011;51003;51.628;6.670;2023-05-07T01:20:35;14.23;;;10.50;;
64595;SDS011;51003;51.628;6.670;2023-05-07T01:23:01;16.03;;;11.20;;
64595;SDS011;51003;51.628;6.670;2023-05-07T01:25:28;13.57;;;11.20;;
64595;SDS011;51003;51.628;6.670;2023-05-07T01:27:53;13.57;;;11.70;;
64595;SDS011;51003;51.628;6.670;2023-05-07T01:30:20;14.33;;;11.23;;
64595;SDS011;51003;51.628;6.670;2023-05-07T01:32:48;14.80;;;11.63;;
64595;SDS011;51003;51.628;6.670;2023-05-07T01:35:18;13.50;;;10.57;;
64595;SDS011;51003;51.628;6.670;2023-05-07T01:37:45;13.67;;;11.00;;
64595;SDS011;51003;51.628;6.670;2023-05-07T01:40:11;14.40;;;10.73;;
64595;SDS011;51003;51.628;6.670;2023-05-07T01:42:37;13.10;;;11.10;;
64595;SDS011;51003;51.628;6.670;2023-05-07T01:45:03;14.63;;;10.73;;
64595;SDS011;51003;51.628;6.670;2023-05-07T01:47:30;14.53;;;11.17;;
64595;SDS011;51003;51.628;6.670;2023-05-07T01:49:56;13.03;;;10.00;;
64595;SDS011;51003;51.628;6.670;2023-05-07T01:52:22;14.17;;;11.50;;
64595;SDS011;51003;51.628;6.670;2023-05-07T01:54:49;16.50;;;11.70;;
64595;SDS011;51003;51.628;6.670;2023-05-07T01:57:15;14.40;;;11.97;;
64595;SDS011;51003;51.628;6.670;2023-05-07T01:59:41;15.33;;;11.17;;
64595;SDS011;51003;51.628;6.670;2023-05-07T02:02:06;17.33;;;11.87;;
64595;SDS011;51003;51.628;6.670;2023-05-07T02:04:32;16.83;;;12.10;;
64595;SDS011;51003;51.628;6.670;2023-05-07T02:06:58;17.37;;;12.27;;
64595;SDS011;51003;51.628;6.670;2023-05-07T02:09:23;16.67;;;11.70;;
64595;SDS011;51003;51.628;6.670;2023-05-07T02:11:49;20.40;;;11.90;;
64595;SDS011;51003;51.628;6.670;2023-05-07T02:14:15;16.87;;;12.50;;
64595;SDS011;51003;51.628;6.670;2023-05-07T02:16:41;13.53;;;11.13;;
64595;SDS011;51003;51.628;6.670;2023-05-07T02:19:06;17.27;;;11.10;;
64595;SDS011;51003;51.628;6.670;2023-05-07T02:21:32;17.47;;;12.30;;
64595;SDS011;51003;51.628;6.670;2023-05-07T02:23:57;19.23;;;12.63;;
64595;SDS011;51003;51.628;6.670;2023-05-07T02:26:23;15.97;;;11.97;;
64595;SDS011;51003;51.628;6.670;2023-05-07T02:28:50;17.03;;;11.90;;
64595;SDS011;51003;51.628;6.670;2023-05-07T02:31:16;16.80;;;12.50;;
64595;SDS011;51003;51.628;6.670;2023-05-07T02:33:42;19.17;;;13.90;;
64595;SDS011;51003;51.628;6.670;2023-05-07T02:36:11;16.30;;;12.60;;
64595;SDS011;51003;51.628;6.670;2023-05-07T02:38:37;15.17;;;12.20;;
64595;SDS011;51003;51.628;6.670;2023-05-07T02:41:02;18.70;;;12.43;;
64595;SDS011;51003;51.628;6.670;2023-05-07T02:43:28;16.40;;;12.37;;
64595;SDS011;51003;51.628;6.670;2023-05-07T02:46:03;15.70;;;12.37;;
64595;SDS011;51003;51.628;6.670;2023-05-07T02:48:29;17.87;;;12.20;;
64595;SDS011;51003;51.628;6.670;2023-05-07T02:50:54;16.37;;;12.83;;
64595;SDS011;51003;51.628;6.670;2023-05-07T02:53:20;17.43;;;12.07;;
64595;SDS011;51003;51.628;6.670;2023-05-07T02:55:45;18.73;;;13.60;;
64595;SDS011;51003;51.628;6.670;2023-05-07T02:58:10;16.53;;;12.47;;
64595;SDS011;51003;51.628;6.670;2023-05-07T03:00:36;19.07;;;12.80;;
64595;SDS011;51003;51.628;6.670;2023-05-07T03:03:01;16.67;;;12.70;;
64595;SDS011;51003;51.628;6.670;2023-05-07T03:05:26;18.23;;;13.37;;
64595;SDS011;51003;51.628;6.670;2023-05-07T03:07:52;15.77;;;12.13;;
64595;SDS011;51003;51.628;6.670;2023-05-07T03:10:17;17.10;;;12.67;;
64595;SDS011;51003;51.628;6.670;2023-05-07T03:12:43;16.33;;;13.03;;
64595;SDS011;51003;51.628;6.670;2023-05-07T03:15:09;17.70;;;13.27;;
64595;SDS011;51003;51.628;6.670;2023-05-07T03:17:36;17.17;;;13.40;;
64595;SDS011;51003;51.628;6.670;2023-05-07T03:20:01;19.20;;;13.37;;
64595;SDS011;51003;51.628;6.670;2023-05-07T03:22:27;17.37;;;13.50;;
64595;SDS011;51003;51.628;6.670;2023-05-07T03:24:53;18.27;;;13.60;;
64595;SDS011;51003;51.628;6.670;2023-05-07T03:27:18;17.67;;;13.50;;
64595;SDS011;51003;51.628;6.670;2023-05-07T03:29:44;19.90;;;14.63;;
64595;SDS011;51003;51.628;6.670;2023-05-07T03:32:10;18.83;;;14.10;;
64595;SDS011;51003;51.628;6.670;2023-05-07T03:34:35;17.90;;;14.30;;
64595;SDS011;51003;51.628;6.670;2023-05-07T03:37:01;17.53;;;13.43;;
64595;SDS011;51003;51.628;6.670;2023-05-07T03:39:26;18.70;;;12.90;;
64595;SDS011;51003;51.628;6.670;2023-05-07T03:41:52;18.63;;;13.37;;
64595;SDS011;51003;51.628;6.670;2023-05-07T03:44:18;18.87;;;14.10;;
64595;SDS011;51003;51.628;6.670;2023-05-07T03:46:44;19.03;;;14.07;;
64595;SDS011;51003;51.628;6.670;2023-05-07T03:49:10;20.23;;;13.70;;
64595;SDS011;51003;51.628;6.670;2023-05-07T03:51:35;17.60;;;13.20;;
64595;SDS011;51003;51.628;6.670;2023-05-07T03:54:01;23.60;;;13.97;;
64595;SDS011;51003;51.628;6.670;2023-05-07T03:56:27;20.30;;;14.13;;
64595;SDS011;51003;51.628;6.670;2023-05-07T03:58:52;18.63;;;13.83;;
64595;SDS011;51003;51.628;6.670;2023-05-07T04:01:18;18.03;;;13.77;;
64595;SDS011;51003;51.628;6.670;2023-05-07T04:03:44;21.63;;;14.90;;
64595;SDS011;51003;51.628;6.670;2023-05-07T04:06:10;19.70;;;14.20;;
64595;SDS011;51003;51.628;6.670;2023-05-07T04:08:35;19.30;;;13.87;;
64595;SDS011;51003;51.628;6.670;2023-05-07T04:11:01;21.03;;;14.60;;
64595;SDS011;51003;51.628;6.670;2023-05-07T04:13:27;21.10;;;14.80;;
64595;SDS011;51003;51.628;6.670;2023-05-07T04:15:54;22.20;;;15.27;;
64595;SDS011;51003;51.628;6.670;2023-05-07T04:18:20;22.00;;;14.00;;
64595;SDS011;51003;51.628;6.670;2023-05-07T04:20:46;21.33;;;14.80;;
64595;SDS011;51003;51.628;6.670;2023-05-07T04:23:12;22.73;;;15.63;;
64595;SDS011;51003;51.628;6.670;2023-05-07T04:25:38;20.03;;;13.70;;
64595;SDS011;51003;51.628;6.670;2023-05-07T04:28:03;23.60;;;14.77;;
64595;SDS011;51003;51.628;6.670;2023-05-07T04:30:29;22.77;;;14.83;;
64595;SDS011;51003;51.628;6.670;2023-05-07T04:32:55;18.13;;;14.17;;
64595;SDS011;51003;51.628;6.670;2023-05-07T04:35:21;18.83;;;13.87;;
64595;SDS011;51003;51.628;6.670;2023-05-07T04:37:47;18.80;;;13.80;;
64595;SDS011;51003;51.628;6.670;2023-05-07T04:40:13;25.70;;;14.70;;
64595;SDS011;51003;51.628;6.670;2023-05-07T04:42:38;22.17;;;14.63;;
64595;SDS011;51003;51.628;6.670;2023-05-07T04:45:04;20.87;;;15.53;;
64595;SDS011;51003;51.628;6.670;2023-05-07T04:47:31;21.80;;;14.97;;
64595;SDS011;51003;51.628;6.670;2023-05-07T04:49:57;21.20;;;14.53;;
64595;SDS011;51003;51.628;6.670;2023-05-07T04:52:23;19.17;;;14.33;;
64595;SDS011;51003;51.628;6.670;2023-05-07T04:54:48;17.27;;;13.60;;
64595;SDS011;51003;51.628;6.670;2023-05-07T04:57:14;20.37;;;14.10;;
64595;SDS011;51003;51.628;6.670;2023-05-07T04:59:39;18.03;;;13.80;;
64595;SDS011;51003;51.628;6.670;2023-05-07T05:02:05;19.80;;;14.23;;
64595;SDS011;51003;51.628;6.670;2023-05-07T05:04:30;19.17;;;14.27;;
64595;SDS011;51003;51.628;6.670;2023-05-07T05:06:56;20.10;;;15.07;;
64595;SDS011;51003;51.628;6.670;2023-05-07T05:09:22;24.33;;;15.40;;
64595;SDS011;51003;51.628;6.670;2023-05-07T05:11:48;19.40;;;14.40;;
64595;SDS011;51003;51.628;6.670;2023-05-07T05:14:14;21.40;;;15.40;;
64595;SDS011;51003;51.628;6.670;2023-05-07T05:16:39;20.80;;;14.63;;
64595;SDS011;51003;51.628;6.670;2023-05-07T05:19:04;19.77;;;13.90;;
64595;SDS011;51003;51.628;6.670;2023-05-07T05:21:31;20.03;;;15.20;;
64595;SDS011;51003;51.628;6.670;2023-05-07T05:23:56;18.03;;;13.93;;
64595;SDS011;51003;51.628;6.670;2023-05-07T05:26:22;17.80;;;13.80;;
64595;SDS011;51003;51.628;6.670;2023-05-07T05:28:47;17.87;;;14.10;;
64595;SDS011;51003;51.628;6.670;2023-05-07T05:31:13;19.20;;;14.07;;
64595;SDS011;51003;51.628;6.670;2023-05-07T05:33:39;17.57;;;13.10;;
64595;SDS011;51003;51.628;6.670;2023-05-07T05:36:05;16.93;;;12.40;;
64595;SDS011;51003;51.628;6.670;2023-05-07T05:38:32;18.13;;;12.20;;
64595;SDS011;51003;51.628;6.670;2023-05-07T05:40:57;16.97;;;12.57;;
64595;SDS011;51003;51.628;6.670;2023-05-07T05:43:23;15.03;;;10.73;;
64595;SDS011;51003;51.628;6.670;2023-05-07T05:45:49;14.30;;;11.70;;
64595;SDS011;51003;51.628;6.670;2023-05-07T05:48:14;14.97;;;12.07;;
64595;SDS011;51003;51.628;6.670;2023-05-07T05:50:41;14.37;;;11.73;;
64595;SDS011;51003;51.628;6.670;2023-05-07T05:53:07;14.30;;;11.27;;
64595;SDS011;51003;51.628;6.670;2023-05-07T05:55:32;14.70;;;11.30;;
64595;SDS011;51003;51.628;6.670;2023-05-07T05:57:59;18.10;;;12.30;;
64595;SDS011;51003;51.628;6.670;2023-05-07T06:00:25;13.80;;;10.73;;
64595;SDS011;51003;51.628;6.670;2023-05-07T06:02:50;13.90;;;10.90;;
64595;SDS011;51003;51.628;6.670;2023-05-07T06:05:16;15.53;;;11.33;;
64595;SDS011;51003;51.628;6.670;2023-05-07T06:07:41;15.33;;;11.67;;
64595;SDS011;51003;51.628;6.670;2023-05-07T06:10:07;15.33;;;11.37;;
64595;SDS011;51003;51.628;6.670;2023-05-07T06:12:33;13.87;;;11.70;;
64595;SDS011;51003;51.628;6.670;2023-05-07T06:14:59;13.67;;;10.87;;
64595;SDS011;51003;51.628;6.670;2023-05-07T06:17:24;14.87;;;11.50;;
64595;SDS011;51003;51.628;6.670;2023-05-07T06:19:50;12.40;;;10.30;;
64595;SDS011;51003;51.628;6.670;2023-05-07T06:22:16;14.37;;;10.63;;
64595;SDS011;51003;51.628;6.670;2023-05-07T06:24:42;12.27;;;10.47;;
64595;SDS011;51003;51.628;6.670;2023-05-07T06:27:07;14.13;;;10.17;;
64595;SDS011;51003;51.628;6.670;2023-05-07T06:29:33;16.00;;;10.67;;
64595;SDS011;51003;51.628;6.670;2023-05-07T06:34:37;13.37;;;10.00;;
64595;SDS011;51003;51.628;6.670;2023-05-07T06:37:04;12.43;;;10.10;;
64595;SDS011;51003;51.628;6.670;2023-05-07T06:39:29;13.83;;;9.60;;
64595;SDS011;51003;51.628;6.670;2023-05-07T06:41:55;11.37;;;9.43;;
64595;SDS011;51003;51.628;6.670;2023-05-07T06:44:21;14.87;;;9.23;;
64595;SDS011;51003;51.628;6.670;2023-05-07T06:46:46;10.83;;;8.83;;
64595;SDS011;51003;51.628;6.670;2023-05-07T06:49:12;11.73;;;9.10;;
64595;SDS011;51003;51.628;6.670;2023-05-07T06:51:38;11.97;;;8.93;;
64595;SDS011;51003;51.628;6.670;2023-05-07T06:54:03;11.60;;;8.30;;
64595;SDS011;51003;51.628;6.670;2023-05-07T06:56:29;9.60;;;7.03;;
64595;SDS011;51003;51.628;6.670;2023-05-07T06:58:55;8.10;;;6.80;;
64595;SDS011;51003;51.628;6.670;2023-05-07T07:01:20;9.20;;;7.67;;
64595;SDS011;51003;51.628;6.670;2023-05-07T07:03:46;12.77;;;8.77;;
64595;SDS011;51003;51.628;6.670;2023-05-07T07:06:12;11.03;;;9.00;;
64595;SDS011;51003;51.628;6.670;2023-05-07T07:08:37;12.73;;;9.67;;
64595;SDS011;51003;51.628;6.670;2023-05-07T07:11:04;11.43;;;9.10;;
64595;SDS011;51003;51.628;6.670;2023-05-07T07:13:29;10.53;;;9.00;;
64595;SDS011;51003;51.628;6.670;2023-05-07T07:15:55;9.60;;;7.67;;
64595;SDS011;51003;51.628;6.670;2023-05-07T07:18:21;9.63;;;8.33;;
64595;SDS011;51003;51.628;6.670;2023-05-07T07:20:47;8.10;;;7.30;;
64595;SDS011;51003;51.628;6.670;2023-05-07T07:23:13;8.30;;;7.50;;
64595;SDS011;51003;51.628;6.670;2023-05-07T07:25:38;8.63;;;7.73;;
64595;SDS011;51003;51.628;6.670;2023-05-07T07:28:05;8.40;;;7.23;;
64595;SDS011;51003;51.628;6.670;2023-05-07T07:30:30;7.20;;;6.50;;
64595;SDS011;51003;51.628;6.670;2023-05-07T07:32:56;7.20;;;6.50;;
64595;SDS011;51003;51.628;6.670;2023-05-07T07:35:27;7.17;;;6.47;;
64595;SDS011;51003;51.628;6.670;2023-05-07T07:37:55;9.90;;;7.10;;
64595;SDS011;51003;51.628;6.670;2023-05-07T07:40:21;8.37;;;6.77;;
64595;SDS011;51003;51.628;6.670;2023-05-07T07:42:47;12.60;;;6.50;;
64595;SDS011;51003;51.628;6.670;2023-05-07T07:45:12;6.67;;;6.00;;
64595;SDS011;51003;51.628;6.670;2023-05-07T07:47:38;6.50;;;5.90;;
64595;SDS011;51003;51.628;6.670;2023-05-07T07:50:05;7.90;;;6.00;;
64595;SDS011;51003;51.628;6.670;2023-05-07T07:52:31;7.00;;;6.17;;
64595;SDS011;51003;51.628;6.670;2023-05-07T07:54:56;7.87;;;5.70;;
64595;SDS011;51003;51.628;6.670;2023-05-07T07:57:22;6.50;;;5.90;;
64595;SDS011;51003;51.628;6.670;2023-05-07T07:59:47;8.10;;;5.57;;
64595;SDS011;51003;51.628;6.670;2023-05-07T08:02:13;6.73;;;5.60;;
64595;SDS011;51003;51.628;6.670;2023-05-07T08:04:39;5.67;;;5.07;;
64595;SDS011;51003;51.628;6.670;2023-05-07T08:07:05;6.20;;;5.60;;
64595;SDS011;51003;51.628;6.670;2023-05-07T08:09:31;6.33;;;4.93;;
64595;SDS011;51003;51.628;6.670;2023-05-07T08:11:56;7.00;;;5.50;;
64595;SDS011;51003;51.628;6.670;2023-05-07T08:14:23;5.30;;;4.80;;
64595;SDS011;51003;51.628;6.670;2023-05-07T08:16:48;6.10;;;5.60;;
64595;SDS011;51003;51.628;6.670;2023-05-07T08:19:14;6.07;;;5.47;;
64595;SDS011;51003;51.628;6.670;2023-05-07T08:21:39;6.03;;;4.60;;
64595;SDS011;51003;51.628;6.670;2023-05-07T08:24:05;4.80;;;4.40;;
64595;SDS011;51003;51.628;6.670;2023-05-07T08:26:31;5.10;;;4.57;;
64595;SDS011;51003;51.628;6.670;2023-05-07T08:28:58;5.40;;;4.90;;
64595;SDS011;51003;51.628;6.670;2023-05-07T08:31:24;5.70;;;4.77;;
64595;SDS011;51003;51.628;6.670;2023-05-07T08:33:50;4.17;;;3.83;;
64595;SDS011;51003;51.628;6.670;2023-05-07T08:36:15;4.10;;;3.80;;
64595;SDS011;51003;51.628;6.670;2023-05-07T08:38:41;5.33;;;4.50;;
64595;SDS011;51003;51.628;6.670;2023-05-07T08:41:12;6.40;;;4.37;;
64595;SDS011;51003;51.628;6.670;2023-05-07T08:43:38;4.17;;;3.87;;
64595;SDS011;51003;51.628;6.670;2023-05-07T08:46:06;4.57;;;4.00;;
64595;SDS011;51003;51.628;6.670;2023-05-07T08:48:33;4.07;;;3.73;;
64595;SDS011;51003;51.628;6.670;2023-05-07T08:50:59;4.13;;;3.83;;
64595;SDS011;51003;51.628;6.670;2023-05-07T08:53:25;7.33;;;3.97;;
64595;SDS011;51003;51.628;6.670;2023-05-07T08:55:51;3.90;;;3.60;;
64595;SDS011;51003;51.628;6.670;2023-05-07T08:58:17;4.73;;;4.33;;
64595;SDS011;51003;51.628;6.670;2023-05-07T09:00:43;3.00;;;2.77;;
64595;SDS011;51003;51.628;6.670;2023-05-07T09:03:08;4.53;;;3.00;;
64595;SDS011;51003;51.628;6.670;2023-05-07T09:05:37;3.20;;;3.00;;
64595;SDS011;51003;51.628;6.670;2023-05-07T09:08:02;4.80;;;4.40;;
64595;SDS011;51003;51.628;6.670;2023-05-07T09:10:29;3.90;;;3.60;;
64595;SDS011;51003;51.628;6.670;2023-05-07T09:12:54;3.60;;;3.20;;
64595;SDS011;51003;51.628;6.670;2023-05-07T09:15:20;4.70;;;4.30;;
64595;SDS011;51003;51.628;6.670;2023-05-07T09:17:46;7.90;;;4.03;;
64595;SDS011;51003;51.628;6.670;2023-05-07T09:20:11;3.57;;;3.27;;
64595;SDS011;51003;51.628;6.670;2023-05-07T09:22:37;3.90;;;3.60;;
64595;SDS011;51003;51.628;6.670;2023-05-07T09:25:03;3.77;;;3.40;;
64595;SDS011;51003;51.628;6.670;2023-05-07T09:27:29;4.90;;;4.50;;
64595;SDS011;51003;51.628;6.670;2023-05-07T09:29:55;4.63;;;4.27;;
64595;SDS011;51003;51.628;6.670;2023-05-07T09:32:21;4.77;;;4.33;;
64595;SDS011;51003;51.628;6.670;2023-05-07T09:34:46;4.43;;;4.03;;
64595;SDS011;51003;51.628;6.670;2023-05-07T09:37:12;4.17;;;3.87;;
64595;SDS011;51003;51.628;6.670;2023-05-07T09:42:05;3.63;;;3.40;;
64595;SDS011;51003;51.628;6.670;2023-05-07T09:44:31;4.50;;;4.20;;
64595;SDS011;51003;51.628;6.670;2023-05-07T09:46:57;3.50;;;3.30;;
64595;SDS011;51003;51.628;6.670;2023-05-07T09:49:25;3.47;;;3.27;;
64595;SDS011;51003;51.628;6.670;2023-05-07T09:51:55;4.43;;;3.40;;
64595;SDS011;51003;51.628;6.670;2023-05-07T09:54:21;3.00;;;2.90;;
64595;SDS011;51003;51.628;6.670;2023-05-07T09:56:51;2.77;;;2.60;;
64595;SDS011;51003;51.628;6.670;2023-05-07T09:59:17;3.47;;;2.30;;
64595;SDS011;51003;51.628;6.670;2023-05-07T10:01:44;3.83;;;2.80;;
64595;SDS011;51003;51.628;6.670;2023-05-07T10:04:10;2.30;;;2.20;;
64595;SDS011;51003;51.628;6.670;2023-05-07T10:06:35;4.47;;;2.80;;
64595;SDS011;51003;51.628;6.670;2023-05-07T10:09:02;2.77;;;2.57;;
64595;SDS011;51003;51.628;6.670;2023-05-07T10:11:30;3.77;;;3.03;;
64595;SDS011;51003;51.628;6.670;2023-05-07T10:13:57;3.60;;;2.80;;
64595;SDS011;51003;51.628;6.670;2023-05-07T10:16:24;2.80;;;2.70;;
64595;SDS011;51003;51.628;6.670;2023-05-07T10:18:51;3.20;;;3.00;;
64595;SDS011;51003;51.628;6.670;2023-05-07T10:21:18;4.50;;;2.57;;
64595;SDS011;51003;51.628;6.670;2023-05-07T10:23:53;2.70;;;2.60;;
64595;SDS011;51003;51.628;6.670;2023-05-07T10:26:35;3.10;;;2.90;;
64595;SDS011;51003;51.628;6.670;2023-05-07T10:29:06;2.50;;;2.40;;
64595;SDS011;51003;51.628;6.670;2023-05-07T10:31:55;2.60;;;2.50;;
64595;SDS011;51003;51.628;6.670;2023-05-07T10:34:29;2.63;;;2.43;;
64595;SDS011;51003;51.628;6.670;2023-05-07T10:36:59;2.87;;;2.70;;
64595;SDS011;51003;51.628;6.670;2023-05-07T10:39:24;3.17;;;3.07;;
64595;SDS011;51003;51.628;6.670;2023-05-07T10:41:50;3.07;;;2.97;;
64595;SDS011;51003;51.628;6.670;2023-05-07T10:44:28;3.90;;;3.60;;
64595;SDS011;51003;51.628;6.670;2023-05-07T10:52:15;2.57;;;2.37;;
64595;SDS011;51003;51.628;6.670;2023-05-07T10:54:44;2.93;;;2.33;;
64595;SDS011;51003;51.628;6.670;2023-05-07T11:00:01;2.47;;;2.37;;
64595;SDS011;51003;51.628;6.670;2023-05-07T11:05:24;2.50;;;2.30;;
64595;SDS011;51003;51.628;6.670;2023-05-07T11:07:54;2.80;;;2.70;;
64595;SDS011;51003;51.628;6.670;2023-05-07T11:10:20;3.30;;;3.00;;
64595;SDS011;51003;51.628;6.670;2023-05-07T11:12:46;3.20;;;3.00;;
64595;SDS011;51003;51.628;6.670;2023-05-07T11:15:13;2.40;;;2.20;;
64595;SDS011;51003;51.628;6.670;2023-05-07T11:17:52;2.13;;;2.03;;
64595;SDS011;51003;51.628;6.670;2023-05-07T11:20:44;2.60;;;2.50;;
64595;SDS011;51003;51.628;6.670;2023-05-07T11:26:04;3.83;;;2.50;;
64595;SDS011;51003;51.628;6.670;2023-05-07T11:28:30;3.30;;;3.10;;
64595;SDS011;51003;51.628;6.670;2023-05-07T11:30:56;3.77;;;3.47;;
64595;SDS011;51003;51.628;6.670;2023-05-07T11:33:22;3.33;;;3.10;;
64595;SDS011;51003;51.628;6.670;2023-05-07T11:35:48;2.90;;;2.80;;
64595;SDS011;51003;51.628;6.670;2023-05-07T11:38:13;3.00;;;2.70;;
64595;SDS011;51003;51.628;6.670;2023-05-07T11:43:34;2.63;;;2.50;;
64595;SDS011;51003;51.628;6.670;2023-05-07T11:46:11;3.67;;;3.00;;
64595;SDS011;51003;51.628;6.670;2023-05-07T11:48:37;2.67;;;2.57;;
64595;SDS011;51003;51.628;6.670;2023-05-07T11:51:04;3.10;;;2.80;;
64595;SDS011;51003;51.628;6.670;2023-05-07T11:53:40;5.00;;;2.97;;
64595;SDS011;51003;51.628;6.670;2023-05-07T11:56:16;3.80;;;3.00;;
64595;SDS011;51003;51.628;6.670;2023-05-07T11:58:43;4.00;;;3.20;;
64595;SDS011;51003;51.628;6.670;2023-05-07T12:01:09;3.40;;;3.10;;
64595;SDS011;51003;51.628;6.670;2023-05-07T12:03:36;3.30;;;3.10;;
64595;SDS011;51003;51.628;6.670;2023-05-07T12:06:02;3.93;;;3.57;;
64595;SDS011;51003;51.628;6.670;2023-05-07T12:08:30;3.33;;;3.13;;
64595;SDS011;51003;51.628;6.670;2023-05-07T12:10:55;3.30;;;3.10;;
64595;SDS011;51003;51.628;6.670;2023-05-07T12:13:21;3.37;;;3.10;;
64595;SDS011;51003;51.628;6.670;2023-05-07T12:15:57;4.13;;;3.37;;
64595;SDS011;51003;51.628;6.670;2023-05-07T12:18:23;3.27;;;2.90;;
64595;SDS011;51003;51.628;6.670;2023-05-07T12:20:48;3.50;;;3.30;;
64595;SDS011;51003;51.628;6.670;2023-05-07T12:23:15;3.57;;;3.27;;
64595;SDS011;51003;51.628;6.670;2023-05-07T12:25:42;3.63;;;3.40;;
64595;SDS011;51003;51.628;6.670;2023-05-07T12:28:18;3.83;;;3.53;;
64595;SDS011;51003;51.628;6.670;2023-05-07T12:30:44;4.10;;;3.40;;
64595;SDS011;51003;51.628;6.670;2023-05-07T12:33:11;3.77;;;3.50;;
64595;SDS011;51003;51.628;6.670;2023-05-07T12:35:38;4.30;;;3.80;;
64595;SDS011;51003;51.628;6.670;2023-05-07T12:38:08;4.10;;;3.80;;
64595;SDS011;51003;51.628;6.670;2023-05-07T12:40:56;4.10;;;3.70;;
64595;SDS011;51003;51.628;6.670;2023-05-07T12:43:25;4.23;;;3.80;;
64595;SDS011;51003;51.628;6.670;2023-05-07T12:45:55;3.40;;;3.20;;
64595;SDS011;51003;51.628;6.670;2023-05-07T12:48:22;4.10;;;3.90;;
64595;SDS011;51003;51.628;6.670;2023-05-07T12:50:54;4.43;;;4.03;;
64595;SDS011;51003;51.628;6.670;2023-05-07T12:53:21;4.10;;;3.80;;
64595;SDS011;51003;51.628;6.670;2023-05-07T12:55:48;3.60;;;3.30;;
64595;SDS011;51003;51.628;6.670;2023-05-07T12:58:26;3.57;;;3.27;;
64595;SDS011;51003;51.628;6.670;2023-05-07T13:00:53;4.30;;;3.90;;
64595;SDS011;51003;51.628;6.670;2023-05-07T13:03:23;4.30;;;4.00;;
64595;SDS011;51003;51.628;6.670;2023-05-07T13:05:50;5.63;;;4.97;;
64595;SDS011;51003;51.628;6.670;2023-05-07T13:08:49;4.30;;;4.00;;
64595;SDS011;51003;51.628;6.670;2023-05-07T13:11:10;5.90;;;4.63;;
64595;SDS011;51003;51.628;6.670;2023-05-07T13:13:37;5.27;;;4.80;;
64595;SDS011;51003;51.628;6.670;2023-05-07T13:16:05;5.27;;;4.87;;
64595;SDS011;51003;51.628;6.670;2023-05-07T13:18:32;4.53;;;4.10;;
64595;SDS011;51003;51.628;6.670;2023-05-07T13:20:58;5.37;;;4.83;;
64595;SDS011;51003;51.628;6.670;2023-05-07T13:23:25;6.90;;;4.67;;
64595;SDS011;51003;51.628;6.670;2023-05-07T13:25:50;6.70;;;3.93;;
64595;SDS011;51003;51.628;6.670;2023-05-07T13:28:18;4.70;;;4.20;;
64595;SDS011;51003;51.628;6.670;2023-05-07T13:30:45;5.17;;;4.67;;
64595;SDS011;51003;51.628;6.670;2023-05-07T13:33:11;5.37;;;4.90;;
64595;SDS011;51003;51.628;6.670;2023-05-07T13:35:36;5.07;;;4.67;;
64595;SDS011;51003;51.628;6.670;2023-05-07T13:38:02;11.00;;;5.37;;
64595;SDS011;51003;51.628;6.670;2023-05-07T13:40:28;5.20;;;4.70;;
64595;SDS011;51003;51.628;6.670;2023-05-07T13:42:54;9.53;;;4.90;;
64595;SDS011;51003;51.628;6.670;2023-05-07T13:45:21;6.17;;;4.97;;
64595;SDS011;51003;51.628;6.670;2023-05-07T13:47:50;5.27;;;4.77;;
64595;SDS011;51003;51.628;6.670;2023-05-07T13:50:15;5.77;;;5.17;;
64595;SDS011;51003;51.628;6.670;2023-05-07T13:52:42;4.83;;;4.37;;
64595;SDS011;51003;51.628;6.670;2023-05-07T13:55:08;5.10;;;4.63;;
64595;SDS011;51003;51.628;6.670;2023-05-07T13:57:35;6.37;;;5.50;;
64595;SDS011;51003;51.628;6.670;2023-05-07T14:00:00;6.53;;;5.20;;
64595;SDS011;51003;51.628;6.670;2023-05-07T14:02:26;6.03;;;5.17;;
64595;SDS011;51003;51.628;6.670;2023-05-07T14:04:52;5.23;;;4.73;;
64595;SDS011;51003;51.628;6.670;2023-05-07T14:07:17;5.80;;;5.30;;
64595;SDS011;51003;51.628;6.670;2023-05-07T14:09:42;5.50;;;5.00;;
64595;SDS011;51003;51.628;6.670;2023-05-07T14:12:08;6.57;;;5.97;;
64595;SDS011;51003;51.628;6.670;2023-05-07T14:14:33;6.07;;;5.47;;
64595;SDS011;51003;51.628;6.670;2023-05-07T14:16:59;6.70;;;6.00;;
64595;SDS011;51003;51.628;6.670;2023-05-07T14:19:25;5.67;;;5.13;;
64595;SDS011;51003;51.628;6.670;2023-05-07T14:21:51;6.20;;;5.60;;
64595;SDS011;51003;51.628;6.670;2023-05-07T14:24:16;9.10;;;6.20;;
64595;SDS011;51003;51.628;6.670;2023-05-07T14:26:41;7.33;;;6.20;;
64595;SDS011;51003;51.628;6.670;2023-05-07T14:29:07;6.53;;;5.50;;
64595;SDS011;51003;51.628;6.670;2023-05-07T14:31:32;6.03;;;5.43;;
64595;SDS011;51003;51.628;6.670;2023-05-07T14:33:58;6.17;;;5.67;;
64595;SDS011;51003;51.628;6.670;2023-05-07T14:36:24;8.60;;;5.57;;
64595;SDS011;51003;51.628;6.670;2023-05-07T14:38:55;5.97;;;5.40;;
64595;SDS011;51003;51.628;6.670;2023-05-07T14:41:21;6.23;;;5.33;;
64595;SDS011;51003;51.628;6.670;2023-05-07T14:43:47;8.37;;;6.07;;
64595;SDS011;51003;51.628;6.670;2023-05-07T14:46:18;6.20;;;5.60;;
64595;SDS011;51003;51.628;6.670;2023-05-07T14:48:44;6.97;;;5.83;;
64595;SDS011;51003;51.628;6.670;2023-05-07T14:51:10;8.27;;;6.53;;
64595;SDS011;51003;51.628;6.670;2023-05-07T14:53:36;7.00;;;5.93;;